Vejprty, Czech Republic

7:33 PM CET on February 23, 2017 (GMT +0100)
ISTECKKR2 | | Change Station

Elev 2369 ft 50.49 °N, 13.03 °E | Updated 3 minutes ago

Partly Cloudy
Partly Cloudy
47.3 °F
Feels Like 43 °F
N
8.8
Wind Variable Wind from WNW
Gusts 20.1 mph

Today
High -- | Low -- °F
--% Chance of Precip.
Yesterday
High -- | Low -- °F
Precip. -- in
Pressure 29.33 in
Visibility 5.6 miles
Clouds Few 1900 ft
Scattered Clouds 3300 ft
Mostly Cloudy 5300 ft
Windchill 43 °F
Dew Point 7 °F
Humidity 19%
Rainfall 0.00 in
Snow Depth Not available.
7:03 AM 5:39 PM
Waning Crescent, 9% visible
METAR EDQM 231820Z 23020KT 9000 RA FEW019 SCT033 BKN053 07/04 Q0993
Pressure 29.33 in
Visibility 5.6 miles
Clouds Few 1900 ft
Scattered Clouds 3300 ft
Mostly Cloudy 5300 ft
Windchill 43 °F
Dew Point 7 °F
Humidity 19%
Rainfall 0.00 in
Snow Depth Not available.
7:03 AM 5:39 PM
Waning Crescent, 9% visible
METAR EDQM 231820Z 23020KT 9000 RA FEW019 SCT033 BKN053 07/04 Q0993

Get Your Daily Forecast Email!

Thanks for signing up!

Be on the lookout for a verification email in your inbox.

You'll start receiving the daily forecast at 8 AM.

×

10-Day Weather Forecast

×

Almanac

Astronomy

Feb. 23, 2017 Rise Set
Actual Time
Civil Twilight
Nautical Twilight
Astronomical Twilight
Moon
Length of Visible Light
Length of Day
Tomorrow will be .
, % of the Moon is Illuminated

Today's Extremes

Country Highs Country Lows

Community

WunderPhotos

Upload Photos

1,962,540 photos uploaded!

WunderBlog® & News

Nearby

Air Quality

  Air Quality AQ Index Pollutant
Not available.

Snow Depth

Station Depth Elevation

Earthquake Activity

City Distance Mag. Time & Date
Minimum magnitude displayed is 2.5.

Coastal Water Temperatures

Place Temperature

Stations

Nearby Weather Stations

Station Location Temp. Windchill Dew Point Humidity Wind Precip. Elev Updated Type